Time;durP1;ratioP1;P1;durP2;ratioP2;P2;SDS_P1;SDS_P2;PMS_P1;PMS_P2;Temp;Humidity;BMP_temperature;BMP_pressure;BME280_temperature;BME280_humidity;BME280_pressure;Samples;Min_cycle;Max_cycle;Signal;HPM_P1;HPM_P2
2023/03/29 00:00:27;;;;;;;0.73;0.50;;;4.10;80.20;;;;;;5026629;28;20022;-75
2023/03/29 00:02:55;;;;;;;0.70;0.40;;;4.10;80.20;;;;;;5029005;28;20423;-75
2023/03/29 00:05:24;;;;;;;0.50;0.40;;;4.20;80.30;;;;;;5023782;28;20017;-75
2023/03/29 00:07:53;;;;;;;0.30;0.30;;;4.20;80.30;;;;;;5032710;28;20404;-75
2023/03/29 00:10:22;;;;;;;0.73;0.55;;;4.30;80.40;;;;;;5034826;28;20041;-74
2023/03/29 00:12:50;;;;;;;0.80;0.60;;;4.30;80.30;;;;;;5034855;28;20033;-75
2023/03/29 00:15:16;;;;;;;0.82;0.60;;;4.40;80.30;;;;;;5025662;28;20030;-73
2023/03/29 00:17:42;;;;;;;1.30;0.52;;;4.40;80.20;;;;;;5027584;28;20029;-75
2023/03/29 00:20:09;;;;;;;1.60;0.65;;;4.50;80.20;;;;;;5045609;28;20032;-75
2023/03/29 00:22:36;;;;;;;3.92;1.13;;;4.50;80.60;;;;;;5021285;28;20088;-77
2023/03/29 00:25:02;;;;;;;1.35;0.68;;;4.50;79.90;;;;;;4990714;28;20018;-74
2023/03/29 00:27:28;;;;;;;1.23;0.95;;;4.60;80.50;;;;;;5018927;28;20021;-74
2023/03/29 00:29:55;;;;;;;0.50;0.50;;;4.60;81.00;;;;;;5024646;28;20376;-75
2023/03/29 00:32:20;;;;;;;0.95;0.60;;;4.70;81.60;;;;;;5022915;28;20310;-74
2023/03/29 00:34:49;;;;;;;1.25;0.82;;;4.70;82.00;;;;;;5023760;28;20042;-73
2023/03/29 00:37:15;;;;;;;1.42;0.73;;;4.80;82.20;;;;;;5026076;28;20014;-76
2023/03/29 00:39:41;;;;;;;1.35;0.80;;;4.80;82.60;;;;;;5029060;28;20075;-75
2023/03/29 00:42:11;;;;;;;0.75;0.60;;;4.80;83.60;;;;;;5028816;28;20037;-77
2023/03/29 00:44:58;;;;;;;0.57;0.40;;;4.80;84.60;;;;;;5021915;28;20033;-76
2023/03/29 00:47:47;;;;;;;0.75;0.40;;;4.80;85.50;;;;;;5013214;28;20083;-76
2023/03/29 00:50:30;;;;;;;0.47;0.40;;;4.80;86.60;;;;;;5016373;28;20026;-74
2023/03/29 00:53:07;;;;;;;0.88;0.40;;;4.80;87.70;;;;;;4996077;28;20037;-75
2023/03/29 00:55:42;;;;;;;1.00;0.17;;;4.70;88.50;;;;;;5013466;28;20044;-74
2023/03/29 00:58:11;;;;;;;0.40;0.40;;;4.70;89.40;;;;;;5027118;28;20033;-74
2023/03/29 01:00:46;;;;;;;1.60;0.52;;;4.80;90.10;;;;;;5030886;28;20107;-74
2023/03/29 01:03:23;;;;;;;0.95;0.40;;;4.70;90.30;;;;;;5020038;28;20053;-75
2023/03/29 01:05:55;;;;;;;0.50;0.40;;;4.70;90.50;;;;;;5025657;28;20072;-74
2023/03/29 01:08:28;;;;;;;0.32;0.32;;;4.70;90.80;;;;;;5026237;28;20104;-75
2023/03/29 01:10:59;;;;;;;1.13;0.40;;;4.60;91.10;;;;;;5019929;28;20347;-76
2023/03/29 01:13:34;;;;;;;0.40;0.40;;;4.60;91.50;;;;;;5023437;28;20463;-74
2023/03/29 01:16:00;;;;;;;1.67;1.00;;;4.50;91.80;;;;;;5018138;28;20057;-76
2023/03/29 01:18:26;;;;;;;1.95;0.77;;;4.40;92.30;;;;;;5027165;28;20022;-75
2023/03/29 01:21:18;;;;;;;0.73;0.68;;;4.40;92.60;;;;;;5015154;28;20565;-77
2023/03/29 01:23:46;;;;;;;1.38;0.68;;;4.30;93.10;;;;;;5006851;28;20026;-75
2023/03/29 01:26:34;;;;;;;0.47;0.47;;;4.30;93.60;;;;;;5015434;28;20387;-74
2023/03/29 01:29:08;;;;;;;0.45;0.45;;;4.30;94.10;;;;;;5029571;28;20026;-77
2023/03/29 01:31:43;;;;;;;0.75;0.60;;;4.30;94.60;;;;;;5035059;28;20075;-75
2023/03/29 01:34:26;;;;;;;0.90;0.63;;;4.20;95.20;;;;;;5029288;28;20447;-74
2023/03/29 01:37:23;;;;;;;0.88;0.65;;;4.30;95.70;;;;;;5023040;28;20037;-74
2023/03/29 01:39:51;;;;;;;0.60;0.60;;;4.20;96.20;;;;;;5009861;28;20033;-75
2023/03/29 01:42:40;;;;;;;0.45;0.32;;;4.30;96.70;;;;;;5034335;28;20017;-75
2023/03/29 01:45:26;;;;;;;0.57;0.57;;;4.30;97.10;;;;;;4995854;28;20088;-74
2023/03/29 01:48:08;;;;;;;0.20;0.20;;;4.30;97.50;;;;;;5019495;28;20474;-74
2023/03/29 01:50:43;;;;;;;0.60;0.60;;;4.30;97.80;;;;;;5034897;28;20026;-75
2023/03/29 01:53:23;;;;;;;0.50;0.50;;;4.20;98.00;;;;;;5029153;28;20118;-75
2023/03/29 01:55:54;;;;;;;1.27;0.55;;;4.20;98.30;;;;;;5015746;28;20060;-74
2023/03/29 01:58:25;;;;;;;1.27;0.50;;;4.20;98.70;;;;;;5014876;28;20033;-74
2023/03/29 02:00:54;;;;;;;0.70;0.40;;;4.10;99.10;;;;;;5032370;28;20225;-74
2023/03/29 02:03:25;;;;;;;0.60;0.60;;;4.10;99.40;;;;;;5026561;28;20034;-74
2023/03/29 02:05:54;;;;;;;0.43;0.40;;;4.10;99.80;;;;;;5031089;28;20022;-75
2023/03/29 02:08:22;;;;;;;0.57;0.40;;;4.10;99.90;;;;;;5019843;28;20026;-75
2023/03/29 02:10:49;;;;;;;0.88;0.40;;;4.10;99.90;;;;;;5015784;28;20129;-74
2023/03/29 02:13:16;;;;;;;0.32;0.30;;;4.10;99.90;;;;;;4999212;28;20040;-74
2023/03/29 02:15:44;;;;;;;0.30;0.30;;;4.20;99.90;;;;;;5029790;28;20303;-75
2023/03/29 02:18:10;;;;;;;0.90;0.50;;;4.20;99.90;;;;;;5030286;28;20375;-74
2023/03/29 02:20:41;;;;;;;0.40;0.40;;;4.20;99.90;;;;;;5015389;28;20026;-75
2023/03/29 02:23:22;;;;;;;0.22;0.22;;;4.20;99.90;;;;;;5015818;28;20442;-77
2023/03/29 02:25:52;;;;;;;0.20;0.20;;;4.20;99.90;;;;;;5012729;28;20022;-75
2023/03/29 02:28:20;;;;;;;0.52;0.30;;;4.20;99.90;;;;;;5044277;28;20056;-76
2023/03/29 02:31:10;;;;;;;1.45;0.40;;;4.20;99.90;;;;;;5025812;28;20017;-74
2023/03/29 02:33:50;;;;;;;0.20;0.20;;;4.20;99.90;;;;;;5014832;28;20030;-73
2023/03/29 02:37:05;;;;;;;0.20;0.20;;;4.20;99.90;;;;;;5022288;28;20048;-75
2023/03/29 02:39:32;;;;;;;0.30;0.30;;;4.20;99.90;;;;;;4972432;28;20121;-74
2023/03/29 02:41:59;;;;;;;0.30;0.30;;;4.20;99.90;;;;;;4973055;28;20395;-74
2023/03/29 02:44:30;;;;;;;0.20;0.20;;;4.10;99.90;;;;;;4996956;28;20447;-75
2023/03/29 02:47:02;;;;;;;0.38;0.30;;;4.10;99.90;;;;;;5016987;28;20061;-76
2023/03/29 02:49:28;;;;;;;0.32;0.22;;;4.10;99.90;;;;;;5032914;28;20067;-75
2023/03/29 02:51:58;;;;;;;0.38;0.10;;;4.10;99.90;;;;;;5013884;28;20426;-75
2023/03/29 02:54:28;;;;;;;0.22;0.22;;;4.00;99.90;;;;;;5013294;28;20034;-76
2023/03/29 02:57:00;;;;;;;0.30;0.20;;;4.10;99.90;;;;;;5013677;28;20067;-77
2023/03/29 02:59:28;;;;;;;0.28;0.28;;;4.10;99.90;;;;;;5030190;28;20032;-75
2023/03/29 03:01:54;;;;;;;0.45;0.30;;;4.00;99.90;;;;;;5026574;28;20036;-74
2023/03/29 03:04:20;;;;;;;0.10;0.10;;;4.10;99.90;;;;;;5023445;28;20304;-75
2023/03/29 03:06:47;;;;;;;0.17;0.17;;;4.00;99.90;;;;;;5034284;28;20022;-74
2023/03/29 03:09:13;;;;;;;0.30;0.30;;;4.00;99.90;;;;;;5018343;28;20034;-75
2023/03/29 03:11:39;;;;;;;0.45;0.45;;;4.00;99.90;;;;;;5013827;28;20433;-75
2023/03/29 03:14:06;;;;;;;0.20;0.20;;;4.00;99.90;;;;;;5017395;28;20029;-75
2023/03/29 03:16:32;;;;;;;0.20;0.20;;;4.00;99.90;;;;;;5033713;28;20100;-74
2023/03/29 03:18:57;;;;;;;0.20;0.20;;;4.00;99.90;;;;;;5020212;28;20061;-74
2023/03/29 03:21:24;;;;;;;0.22;0.22;;;4.00;99.90;;;;;;5029940;28;20482;-75
2023/03/29 03:23:50;;;;;;;0.13;0.13;;;4.00;99.90;;;;;;5028305;28;20520;-73
2023/03/29 03:26:17;;;;;;;0.22;0.20;;;4.00;99.90;;;;;;5012774;28;20029;-75
2023/03/29 03:28:44;;;;;;;0.10;0.10;;;3.90;99.90;;;;;;5014590;28;20026;-75
2023/03/29 03:31:10;;;;;;;0.30;0.10;;;3.90;99.90;;;;;;5015349;28;20101;-74
2023/03/29 03:33:35;;;;;;;0.40;0.30;;;3.80;99.90;;;;;;5017107;28;20089;-75
2023/03/29 03:36:05;;;;;;;0.28;0.20;;;3.80;99.90;;;;;;5025788;28;20037;-77
2023/03/29 03:38:32;;;;;;;0.22;0.22;;;3.80;99.90;;;;;;5027995;28;20040;-74
2023/03/29 03:40:59;;;;;;;0.32;0.22;;;3.70;99.90;;;;;;5031560;28;20060;-78
2023/03/29 03:43:24;;;;;;;0.52;0.40;;;3.60;99.90;;;;;;5036882;28;20097;-76
2023/03/29 03:45:50;;;;;;;0.30;0.30;;;3.60;99.90;;;;;;5038827;28;20026;-74
2023/03/29 03:48:17;;;;;;;0.40;0.32;;;3.60;99.90;;;;;;5033445;28;20033;-74
2023/03/29 03:51:03;;;;;;;0.63;0.40;;;3.50;99.90;;;;;;5031846;28;20026;-76
2023/03/29 03:53:29;;;;;;;0.57;0.38;;;3.50;99.90;;;;;;5024916;28;20502;-76
2023/03/29 03:55:55;;;;;;;0.30;0.30;;;3.40;99.90;;;;;;5012902;28;20026;-74
2023/03/29 03:58:21;;;;;;;0.30;0.22;;;3.40;99.90;;;;;;5024350;28;20039;-75
2023/03/29 04:00:48;;;;;;;0.20;0.20;;;3.30;99.90;;;;;;5027836;28;20028;-75
2023/03/29 04:03:15;;;;;;;0.30;0.30;;;3.20;99.90;;;;;;5021800;28;20124;-75
2023/03/29 04:05:43;;;;;;;0.40;0.40;;;;;;;;;;5032503;28;20109;-73
2023/03/29 04:08:10;;;;;;;0.28;0.28;;;3.00;99.90;;;;;;5032805;28;20025;-75
2023/03/29 04:10:36;;;;;;;0.20;0.20;;;3.10;99.90;;;;;;5032041;28;20422;-76
2023/03/29 04:13:03;;;;;;;0.20;0.20;;;3.00;99.90;;;;;;5014540;28;20368;-74
2023/03/29 04:15:30;;;;;;;0.30;0.30;;;3.10;99.90;;;;;;5028901;28;20064;-75
2023/03/29 04:17:56;;;;;;;0.20;0.20;;;3.10;99.90;;;;;;5033032;28;20034;-74
2023/03/29 04:20:23;;;;;;;0.17;0.17;;;3.20;99.90;;;;;;5034494;28;20049;-74
2023/03/29 04:22:52;;;;;;;0.40;0.40;;;3.30;99.90;;;;;;5007723;28;20038;-74
2023/03/29 04:25:18;;;;;;;0.20;0.20;;;3.40;99.90;;;;;;5012266;28;20215;-77
2023/03/29 04:27:44;;;;;;;0.30;0.30;;;3.40;99.90;;;;;;5030127;28;20479;-77
2023/03/29 04:30:11;;;;;;;0.50;0.50;;;3.50;99.90;;;;;;4995470;28;20026;-77
2023/03/29 04:32:37;;;;;;;0.20;0.20;;;3.60;99.90;;;;;;5016307;28;20395;-77
2023/03/29 04:35:03;;;;;;;0.98;0.20;;;3.70;99.90;;;;;;5033013;28;20028;-77
2023/03/29 04:37:30;;;;;;;0.17;0.17;;;3.70;99.90;;;;;;5018262;28;20052;-77
2023/03/29 04:39:59;;;;;;;0.30;0.30;;;3.80;99.90;;;;;;5014985;28;20052;-77
2023/03/29 04:42:26;;;;;;;0.50;0.20;;;3.80;99.90;;;;;;4998224;28;20510;-77
2023/03/29 04:44:52;;;;;;;0.35;0.35;;;3.80;99.90;;;;;;5034125;28;20554;-76
2023/03/29 04:47:18;;;;;;;0.13;0.13;;;3.90;99.90;;;;;;5013058;28;20053;-76
2023/03/29 04:49:44;;;;;;;0.20;0.20;;;4.00;99.90;;;;;;5034385;28;20361;-76
2023/03/29 04:52:10;;;;;;;0.08;0.08;;;4.00;99.90;;;;;;5030037;28;20076;-76
2023/03/29 04:54:36;;;;;;;0.13;0.13;;;4.10;99.90;;;;;;5026492;28;20098;-77
2023/03/29 04:57:03;;;;;;;0.10;0.10;;;4.20;99.90;;;;;;5045287;28;20044;-77
2023/03/29 04:59:29;;;;;;;0.17;0.17;;;4.20;99.90;;;;;;5032646;28;20037;-76
2023/03/29 05:01:55;;;;;;;0.20;0.20;;;4.30;99.90;;;;;;5025996;28;20026;-77
2023/03/29 05:04:21;;;;;;;0.40;0.20;;;4.40;99.90;;;;;;5034391;28;20036;-77
2023/03/29 05:06:47;;;;;;;0.28;0.28;;;4.50;99.90;;;;;;5015285;28;20017;-76
2023/03/29 05:09:13;;;;;;;0.30;0.20;;;4.50;99.90;;;;;;5018561;28;20393;-77
2023/03/29 05:11:39;;;;;;;0.32;0.25;;;4.50;99.90;;;;;;5018590;28;20018;-77
2023/03/29 05:14:06;;;;;;;0.30;0.30;;;4.60;99.90;;;;;;5010299;28;20037;-76
2023/03/29 05:16:33;;;;;;;0.50;0.22;;;4.70;99.90;;;;;;5029905;28;20021;-76
2023/03/29 05:18:59;;;;;;;0.20;0.20;;;4.70;99.90;;;;;;5024485;28;20026;-77
2023/03/29 05:21:27;;;;;;;1.10;0.30;;;4.80;99.90;;;;;;5017681;28;20038;-76
2023/03/29 05:23:53;;;;;;;0.30;0.30;;;4.90;99.90;;;;;;5019911;28;20030;-77
2023/03/29 05:26:21;;;;;;;0.20;0.20;;;5.00;99.90;;;;;;5029031;28;20022;-76
2023/03/29 05:28:49;;;;;;;0.30;0.20;;;5.10;99.90;;;;;;5020562;28;20033;-77
2023/03/29 05:31:16;;;;;;;0.50;0.50;;;5.20;99.90;;;;;;5035444;28;20025;-76
2023/03/29 05:33:42;;;;;;;0.47;0.47;;;5.30;99.90;;;;;;5007658;28;20030;-76
2023/03/29 05:36:12;;;;;;;1.15;0.63;;;5.40;99.90;;;;;;5017741;28;20386;-77
2023/03/29 05:38:38;;;;;;;1.85;0.40;;;5.50;99.90;;;;;;5031776;28;20064;-77
2023/03/29 05:41:05;;;;;;;0.55;0.40;;;5.60;99.90;;;;;;5051336;28;20044;-75
2023/03/29 05:43:32;;;;;;;0.40;0.28;;;5.70;99.90;;;;;;5043580;28;20032;-76
2023/03/29 05:45:58;;;;;;;0.30;0.30;;;5.80;99.90;;;;;;5052011;28;20047;-76
2023/03/29 05:48:24;;;;;;;0.70;0.32;;;5.90;99.90;;;;;;5034779;28;20041;-77
2023/03/29 05:50:52;;;;;;;0.90;0.63;;;5.90;99.90;;;;;;5024334;28;20041;-77
2023/03/29 05:53:19;;;;;;;0.50;0.50;;;6.00;99.90;;;;;;5031854;28;20026;-77
2023/03/29 05:55:46;;;;;;;2.33;0.50;;;6.10;99.90;;;;;;5019874;28;20022;-77
2023/03/29 05:58:12;;;;;;;0.70;0.28;;;6.20;99.90;;;;;;5008145;28;20367;-77
2023/03/29 06:00:39;;;;;;;1.60;0.20;;;6.20;99.90;;;;;;5036127;28;20079;-77
2023/03/29 06:03:06;;;;;;;1.02;0.40;;;6.30;99.90;;;;;;5017457;28;20082;-76
2023/03/29 06:05:33;;;;;;;1.15;0.47;;;6.40;99.90;;;;;;5015721;28;20026;-77
2023/03/29 06:08:00;;;;;;;0.25;0.20;;;6.50;99.90;;;;;;5000346;28;20022;-77
2023/03/29 06:10:27;;;;;;;0.77;0.40;;;6.50;99.90;;;;;;5017127;28;20030;-77
2023/03/29 06:12:54;;;;;;;0.68;0.30;;;6.50;99.80;;;;;;5028426;28;20503;-78
2023/03/29 06:15:20;;;;;;;0.45;0.30;;;6.60;99.50;;;;;;5024084;28;20483;-78
2023/03/29 06:17:46;;;;;;;1.00;0.40;;;6.70;99.30;;;;;;5035306;28;20025;-77
2023/03/29 06:20:12;;;;;;;0.60;0.60;;;6.70;99.10;;;;;;5002884;28;20096;-77
2023/03/29 06:22:38;;;;;;;0.60;0.60;;;6.80;98.90;;;;;;5014270;28;20491;-77
2023/03/29 06:25:05;;;;;;;1.23;0.70;;;6.70;98.50;;;;;;5016765;28;20053;-76
2023/03/29 06:27:31;;;;;;;1.00;0.85;;;6.80;98.30;;;;;;5026111;28;20038;-75
2023/03/29 06:29:58;;;;;;;1.27;0.82;;;6.80;98.30;;;;;;5027383;28;20084;-77
2023/03/29 06:32:24;;;;;;;0.65;0.43;;;6.80;98.10;;;;;;5015265;28;20146;-76
2023/03/29 06:34:50;;;;;;;0.60;0.60;;;6.80;98.00;;;;;;5023520;28;20128;-77
2023/03/29 06:37:16;;;;;;;0.57;0.57;;;6.80;97.80;;;;;;5024987;28;20064;-77
2023/03/29 06:39:42;;;;;;;0.73;0.40;;;6.90;97.70;;;;;;5017888;28;20084;-77
2023/03/29 06:42:08;;;;;;;1.65;0.63;;;6.90;97.40;;;;;;5031405;28;20064;-77
2023/03/29 06:44:34;;;;;;;0.52;0.30;;;7.00;97.30;;;;;;5029510;28;20047;-77
2023/03/29 06:47:00;;;;;;;0.47;0.47;;;7.10;97.10;;;;;;5018487;28;20022;-76
2023/03/29 06:49:26;;;;;;;0.52;0.38;;;7.20;96.80;;;;;;5022872;28;20014;-75
2023/03/29 06:51:52;;;;;;;0.63;0.38;;;7.40;96.40;;;;;;5037449;28;20030;-76
2023/03/29 06:54:18;;;;;;;0.28;0.22;;;7.50;96.10;;;;;;5022698;28;20018;-77
2023/03/29 06:56:46;;;;;;;0.90;0.30;;;7.60;95.70;;;;;;5020257;28;20030;-76
2023/03/29 06:59:12;;;;;;;1.90;0.50;;;7.80;95.40;;;;;;5013543;28;20116;-77
2023/03/29 07:01:38;;;;;;;1.30;0.60;;;7.80;95.00;;;;;;5041698;28;20022;-77
2023/03/29 07:04:07;;;;;;;1.67;0.60;;;7.90;94.60;;;;;;5040346;28;20104;-77
2023/03/29 07:06:35;;;;;;;1.10;0.50;;;8.00;94.40;;;;;;5039432;28;20028;-77
2023/03/29 07:09:01;;;;;;;1.17;0.32;;;8.20;94.00;;;;;;5026893;28;20375;-77
2023/03/29 07:11:27;;;;;;;1.08;0.60;;;8.20;93.80;;;;;;5031140;28;20025;-76
2023/03/29 07:13:54;;;;;;;1.60;0.60;;;8.40;93.60;;;;;;5039562;28;20030;-77
2023/03/29 07:16:20;;;;;;;1.73;0.63;;;8.50;93.00;;;;;;5022743;28;20086;-77
2023/03/29 07:18:46;;;;;;;0.68;0.63;;;8.70;92.80;;;;;;5032616;28;20475;-77
2023/03/29 07:21:12;;;;;;;0.45;0.40;;;8.80;92.40;;;;;;5031434;28;20076;-77
2023/03/29 07:23:38;;;;;;;2.17;0.63;;;9.10;92.00;;;;;;5008508;28;20029;-77
2023/03/29 07:26:09;;;;;;;1.00;0.50;;;9.20;91.60;;;;;;5017303;28;20030;-78
2023/03/29 07:28:36;;;;;;;3.42;0.75;;;9.40;91.10;;;;;;5018155;28;20018;-77
2023/03/29 07:31:09;;;;;;;0.88;0.65;;;9.60;90.50;;;;;;5013231;28;20394;-77
2023/03/29 07:33:35;;;;;;;2.03;0.75;;;9.80;90.10;;;;;;5003825;28;20030;-77
2023/03/29 07:36:02;;;;;;;1.40;0.70;;;10.00;89.00;;;;;;5023541;28;20040;-77
2023/03/29 07:38:31;;;;;;;1.17;0.60;;;10.20;87.50;;;;;;5028774;28;20034;-77
2023/03/29 07:40:57;;;;;;;1.45;0.40;;;10.50;86.80;;;;;;5036065;28;20031;-77
2023/03/29 07:43:23;;;;;;;1.42;0.90;;;10.70;85.10;;;;;;5028216;28;20060;-77
2023/03/29 07:45:54;;;;;;;1.00;0.57;;;10.90;83.60;;;;;;5018083;28;20228;-76
2023/03/29 07:48:21;;;;;;;5.13;0.60;;;11.00;82.10;;;;;;5019358;28;20025;-77
2023/03/29 07:50:46;;;;;;;2.75;0.52;;;11.10;79.70;;;;;;5041749;28;20036;-76
2023/03/29 07:53:12;;;;;;;4.13;0.90;;;11.20;80.00;;;;;;5041504;28;20029;-76
2023/03/29 07:55:45;;;;;;;1.58;0.77;;;11.20;79.40;;;;;;5042093;28;20010;-76
2023/03/29 07:58:14;;;;;;;2.10;0.80;;;11.20;79.40;;;;;;5039538;28;20093;-77
2023/03/29 08:00:42;;;;;;;2.13;0.45;;;11.10;78.40;;;;;;5045448;28;20099;-76
2023/03/29 08:03:11;;;;;;;1.30;0.55;;;10.80;79.10;;;;;;5025693;28;20032;-76
2023/03/29 08:05:38;;;;;;;0.95;0.60;;;10.70;79.50;;;;;;5048476;28;20018;-76
2023/03/29 08:08:08;;;;;;;1.77;0.75;;;10.80;79.40;;;;;;5040597;28;20033;-76
2023/03/29 08:10:36;;;;;;;0.70;0.40;;;10.90;78.50;;;;;;5038273;28;20029;-76
2023/03/29 08:13:07;;;;;;;1.05;0.60;;;11.00;77.50;;;;;;5037202;28;20080;-77
2023/03/29 08:15:34;;;;;;;0.68;0.60;;;11.20;77.30;;;;;;5002316;28;20099;-77
2023/03/29 08:18:00;;;;;;;2.05;0.68;;;11.40;76.90;;;;;;5002272;28;20025;-76
2023/03/29 08:20:26;;;;;;;0.68;0.50;;;11.50;76.10;;;;;;5034630;28;20021;-78
2023/03/29 08:22:53;;;;;;;1.42;0.55;;;11.50;75.70;;;;;;5002925;28;20044;-76
2023/03/29 08:25:19;;;;;;;2.13;0.55;;;11.50;75.40;;;;;;5025859;28;20037;-77
2023/03/29 08:27:44;;;;;;;1.83;0.85;;;11.40;75.30;;;;;;5002417;28;20022;-76
2023/03/29 08:30:10;;;;;;;0.75;0.60;;;11.20;75.40;;;;;;5017901;28;20119;-77
2023/03/29 08:32:37;;;;;;;1.90;0.73;;;11.10;75.50;;;;;;5000405;28;20033;-77
2023/03/29 08:35:05;;;;;;;0.85;0.60;;;11.10;76.00;;;;;;5040683;28;20075;-76
2023/03/29 08:37:31;;;;;;;3.58;1.52;;;11.10;76.20;;;;;;5040599;28;20053;-77
2023/03/29 08:39:57;;;;;;;3.78;2.33;;;11.10;75.30;;;;;;5027380;28;20029;-77
2023/03/29 08:42:57;;;;;;;1.40;1.20;;;11.10;75.50;;;;;;5020723;28;20040;-77
2023/03/29 08:45:49;;;;;;;1.58;1.17;;;11.00;75.60;;;;;;5015468;28;20101;-77
2023/03/29 08:48:29;;;;;;;2.08;1.20;;;11.00;75.60;;;;;;5022814;28;20482;-77
2023/03/29 08:51:00;;;;;;;1.65;1.48;;;11.00;76.00;;;;;;5019561;28;20482;-78
2023/03/29 08:53:41;;;;;;;2.78;1.20;;;11.10;75.60;;;;;;5036151;28;20423;-76
2023/03/29 08:56:12;;;;;;;2.15;1.40;;;11.20;75.40;;;;;;5027995;28;20109;-76
2023/03/29 08:58:38;;;;;;;1.67;1.02;;;11.50;75.00;;;;;;5026982;28;20635;-77
2023/03/29 09:01:07;;;;;;;2.60;1.23;;;11.80;74.00;;;;;;4999444;28;20406;-76
2023/03/29 09:03:39;;;;;;;3.38;1.25;;;12.10;72.80;;;;;;5020616;28;20030;-77
2023/03/29 09:06:08;;;;;;;3.42;1.30;;;12.30;72.30;;;;;;4981619;28;20054;-77
2023/03/29 09:08:42;;;;;;;2.78;1.10;;;12.60;71.60;;;;;;5018403;28;20033;-77
2023/03/29 09:11:23;;;;;;;2.33;0.70;;;12.70;70.50;;;;;;5016891;28;20058;-76
2023/03/29 09:14:07;;;;;;;1.58;0.80;;;12.80;70.20;;;;;;5046031;28;20017;-76
2023/03/29 09:16:58;;;;;;;0.63;0.50;;;12.90;70.00;;;;;;5046249;28;20049;-77
2023/03/29 09:19:42;;;;;;;0.95;0.70;;;12.90;69.70;;;;;;5045903;28;20022;-76
2023/03/29 09:22:21;;;;;;;4.70;1.23;;;13.00;69.50;;;;;;5052472;28;20021;-74
2023/03/29 09:25:02;;;;;;;1.95;0.73;;;13.00;69.20;;;;;;5037389;28;20073;-77
2023/03/29 09:27:53;;;;;;;0.50;0.50;;;13.00;69.20;;;;;;5040550;28;20048;-77
2023/03/29 09:30:33;;;;;;;1.45;0.75;;;13.10;69.20;;;;;;5035992;28;20022;-77
2023/03/29 09:33:10;;;;;;;2.55;1.77;;;13.20;68.70;;;;;;5003035;28;20029;-78
2023/03/29 09:35:41;;;;;;;3.30;1.50;;;13.30;67.20;;;;;;4999748;28;20041;-76
2023/03/29 09:38:11;;;;;;;2.63;1.23;;;13.20;67.00;;;;;;5038694;28;20112;-77
2023/03/29 09:40:41;;;;;;;2.40;1.38;;;13.10;66.90;;;;;;5025572;28;20030;-76
2023/03/29 09:43:11;;;;;;;2.00;1.50;;;13.10;67.50;;;;;;5000436;28;20136;-77
2023/03/29 09:45:38;;;;;;;3.30;1.60;;;13.20;67.60;;;;;;5016751;28;20026;-77
2023/03/29 09:48:13;;;;;;;1.42;1.00;;;13.20;67.80;;;;;;5016919;28;20486;-76
2023/03/29 09:50:46;;;;;;;1.75;0.80;;;13.20;67.70;;;;;;5017732;28;20049;-76
2023/03/29 09:53:13;;;;;;;1.00;0.90;;;13.20;67.50;;;;;;5023205;28;20057;-77
2023/03/29 09:55:39;;;;;;;1.15;0.80;;;13.00;67.40;;;;;;5002153;28;20033;-76
2023/03/29 09:58:21;;;;;;;0.68;0.60;;;12.90;67.70;;;;;;5024327;28;20032;-77
2023/03/29 10:00:47;;;;;;;1.65;0.77;;;12.90;68.10;;;;;;5011346;28;20053;-77
2023/03/29 10:03:21;;;;;;;1.15;0.60;;;13.00;67.80;;;;;;5035805;28;20034;-77
2023/03/29 10:05:52;;;;;;;2.45;0.70;;;13.20;67.70;;;;;;5036266;28;20032;-76
2023/03/29 10:08:29;;;;;;;1.52;0.80;;;13.40;67.00;;;;;;5029826;28;20034;-76
2023/03/29 10:11:00;;;;;;;0.82;0.68;;;13.50;66.30;;;;;;5017379;28;20034;-77
2023/03/29 10:13:29;;;;;;;2.58;0.85;;;13.60;65.70;;;;;;5024108;28;20037;-77
2023/03/29 10:16:03;;;;;;;1.08;0.90;;;13.80;65.10;;;;;;5024754;28;20468;-76
2023/03/29 10:18:31;;;;;;;2.38;0.65;;;14.00;65.20;;;;;;5005751;28;20536;-76
2023/03/29 10:21:03;;;;;;;2.05;1.02;;;14.20;64.60;;;;;;5009913;28;20030;-77
2023/03/29 10:23:35;;;;;;;2.13;1.00;;;14.30;63.40;;;;;;5006390;28;20038;-77
2023/03/29 10:26:04;;;;;;;3.58;0.80;;;14.40;63.10;;;;;;5025847;28;20089;-77
2023/03/29 10:28:31;;;;;;;1.75;0.88;;;14.50;62.90;;;;;;5022057;28;20021;-76
2023/03/29 10:30:59;;;;;;;3.75;0.90;;;14.60;62.90;;;;;;5020465;28;20442;-77
2023/03/29 10:33:33;;;;;;;2.55;1.10;;;14.60;62.00;;;;;;5037542;28;20126;-77
2023/03/29 10:36:01;;;;;;;3.30;0.80;;;14.70;60.90;;;;;;5022238;28;20095;-77
2023/03/29 10:38:29;;;;;;;1.90;0.75;;;14.50;60.00;;;;;;5027267;28;20068;-76
2023/03/29 10:41:03;;;;;;;1.42;1.00;;;14.40;60.60;;;;;;5037819;28;20029;-78
2023/03/29 10:43:37;;;;;;;0.63;0.63;;;14.30;60.70;;;;;;5037681;28;20044;-77
2023/03/29 10:46:12;;;;;;;1.65;0.90;;;14.40;60.90;;;;;;5021153;28;20057;-77
2023/03/29 10:48:38;;;;;;;1.27;0.40;;;14.70;60.60;;;;;;5031457;28;20021;-76
2023/03/29 10:51:06;;;;;;;0.70;0.68;;;14.80;59.70;;;;;;5003349;28;20045;-78
2023/03/29 10:53:34;;;;;;;1.17;0.50;;;15.00;59.20;;;;;;5030774;28;20018;-77
2023/03/29 10:56:22;;;;;;;0.70;0.70;;;15.00;58.80;;;;;;5017202;28;20049;-76
2023/03/29 10:58:57;;;;;;;1.30;0.88;;;15.10;58.50;;;;;;5003867;28;20040;-76
2023/03/29 11:02:01;;;;;;;1.70;0.80;;;15.20;58.20;;;;;;5008479;28;20037;-78
2023/03/29 11:04:33;;;;;;;2.85;0.77;;;15.10;57.70;;;;;;5007384;28;20112;-76
2023/03/29 11:07:26;;;;;;;3.13;0.90;;;15.10;57.70;;;;;;5017164;28;20050;-77
2023/03/29 11:10:08;;;;;;;2.28;0.73;;;15.00;57.60;;;;;;5015616;28;20041;-77
2023/03/29 11:12:58;;;;;;;2.03;1.30;;;14.90;58.00;;;;;;5017195;28;20021;-77
2023/03/29 11:15:48;;;;;;;1.05;0.77;;;14.90;57.70;;;;;;5024338;28;20033;-79
2023/03/29 11:18:44;;;;;;;0.73;0.60;;;14.90;57.80;;;;;;5003782;28;20087;-76
2023/03/29 11:21:28;;;;;;;2.80;0.60;;;14.90;57.90;;;;;;5036226;28;20076;-76
2023/03/29 11:24:35;;;;;;;2.05;0.73;;;15.10;58.00;;;;;;5031941;28;20426;-77
2023/03/29 11:27:15;;;;;;;1.23;0.93;;;15.20;56.90;;;;;;4970798;28;20096;-78
2023/03/29 11:29:41;;;;;;;0.88;0.57;;;15.30;56.60;;;;;;5017729;28;20032;-76
2023/03/29 11:32:33;;;;;;;2.25;0.93;;;15.50;56.40;;;;;;5035807;28;20100;-76
2023/03/29 11:35:11;;;;;;;1.77;0.85;;;15.90;55.50;;;;;;5018522;28;20026;-77
2023/03/29 11:38:10;;;;;;;1.77;0.88;;;16.20;54.70;;;;;;5010438;28;20495;-77
2023/03/29 11:40:44;;;;;;;1.45;0.95;;;16.30;54.10;;;;;;5016594;28;20175;-77
2023/03/29 11:43:23;;;;;;;3.97;1.15;;;16.30;54.00;;;;;;5020800;28;20044;-76
2023/03/29 11:46:11;;;;;;;3.85;1.10;;;16.30;53.40;;;;;;5035633;28;20029;-77
2023/03/29 11:48:46;;;;;;;1.95;0.90;;;16.20;53.90;;;;;;5000865;28;20033;-77
2023/03/29 11:51:40;;;;;;;2.97;1.05;;;16.20;54.00;;;;;;5022087;28;20030;-77
2023/03/29 11:54:28;;;;;;;2.45;0.98;;;16.10;54.00;;;;;;5034502;28;20037;-77
2023/03/29 11:57:13;;;;;;;3.13;0.90;;;16.10;53.60;;;;;;5006511;28;20049;-76
2023/03/29 11:59:54;;;;;;;1.75;0.88;;;15.90;53.10;;;;;;5032348;28;20037;-76
2023/03/29 12:02:22;;;;;;;3.25;0.90;;;15.70;53.30;;;;;;5031243;28;20029;-76
2023/03/29 12:04:53;;;;;;;1.88;0.90;;;15.60;53.70;;;;;;5025661;28;20067;-77
2023/03/29 12:07:22;;;;;;;2.58;0.90;;;15.60;53.90;;;;;;5035027;28;20017;-76
2023/03/29 12:09:55;;;;;;;1.98;0.82;;;15.70;53.70;;;;;;5004633;28;20026;-77
2023/03/29 12:12:28;;;;;;;1.63;0.93;;;15.80;53.10;;;;;;5034489;28;20033;-77
2023/03/29 12:15:09;;;;;;;2.33;1.00;;;16.00;53.40;;;;;;5031901;28;20026;-77
2023/03/29 12:17:43;;;;;;;1.73;0.70;;;16.20;52.30;;;;;;5020233;28;20026;-77
2023/03/29 12:20:28;;;;;;;2.85;0.90;;;16.30;51.90;;;;;;5017724;28;20383;-76
2023/03/29 12:22:54;;;;;;;3.67;0.93;;;16.40;51.20;;;;;;4999351;28;20026;-77
2023/03/29 12:25:43;;;;;;;0.55;0.50;;;16.40;51.60;;;;;;5020691;28;20053;-77
2023/03/29 12:28:47;;;;;;;2.70;0.75;;;16.30;52.00;;;;;;5005572;28;20026;-77
2023/03/29 12:31:13;;;;;;;3.40;0.70;;;16.20;51.60;;;;;;4956761;28;20050;-77
2023/03/29 12:34:02;;;;;;;4.25;0.98;;;15.90;51.70;;;;;;5014397;28;20400;-77
2023/03/29 12:36:40;;;;;;;2.22;1.00;;;15.80;51.30;;;;;;5014753;28;20029;-76
2023/03/29 12:39:14;;;;;;;1.48;0.80;;;15.80;51.60;;;;;;5011748;28;20030;-76
2023/03/29 12:41:43;;;;;;;2.70;0.85;;;15.70;51.30;;;;;;5021497;28;20429;-77
2023/03/29 12:44:13;;;;;;;3.65;0.80;;;15.60;51.50;;;;;;5047054;28;20048;-77
2023/03/29 12:46:39;;;;;;;2.10;0.77;;;15.40;51.70;;;;;;5047831;28;20031;-76
2023/03/29 12:49:26;;;;;;;3.63;0.98;;;15.40;51.50;;;;;;5048379;28;20030;-76
2023/03/29 12:51:55;;;;;;;4.20;0.80;;;15.30;51.50;;;;;;5036877;28;20025;-76
2023/03/29 12:54:30;;;;;;;1.65;0.60;;;15.20;51.80;;;;;;4991960;28;20026;-76
2023/03/29 12:57:00;;;;;;;0.93;0.68;;;15.10;52.40;;;;;;5015338;28;20041;-77
2023/03/29 12:59:35;;;;;;;1.90;0.80;;;15.00;53.10;;;;;;5020668;28;20079;-76
2023/03/29 13:02:11;;;;;;;2.08;1.05;;;14.90;52.70;;;;;;5033925;28;20033;-77
2023/03/29 13:04:59;;;;;;;1.60;0.80;;;14.80;53.00;;;;;;5033897;28;20029;-75
2023/03/29 13:07:30;;;;;;;0.95;0.88;;;14.90;53.20;;;;;;5020787;28;20108;-76
2023/03/29 13:10:02;;;;;;;2.33;0.50;;;15.00;53.80;;;;;;5007195;28;20095;-77
2023/03/29 13:12:34;;;;;;;2.22;1.02;;;15.60;53.80;;;;;;5041452;28;20025;-76
2023/03/29 13:15:27;;;;;;;1.33;0.65;;;16.20;51.60;;;;;;5034100;28;20072;-76